Hauptseite
METAR-TAF:

METAR-TAF

Flughäfen :

Wattisham, England

Breite: 52-07N, Länge: 000-58E, Höhe: 87 m

Beobachtung

Neuester Wetterbericht von vor 41 Minuten, um 12:50 UTC
Wind 9 kt aus Süd/Südwest
Temperatur 23°C
Luftfeuchtigkeit 69%
Luftdruck 1018 hPa
Sichtweite 10 km oder mehr
Durchbrochene Bewölkung in der Höhe von 2500 ft

METAR: EGUW 061250Z 20009KT 9999 BKN025 23/17 Q1018 BLU TEMPO BKN024 RMK BLU TEMPO WHT

Zeit: 14:31 (13:31 UTC)

Prognose

Neuester Wetterbericht von vor 1 Stunde und 38 Minuten, um 11:53 UTC
Gültige Prognose vom 06 um 12 UTC bis 06 um 21 UTC
Wind 10 kt aus Süd/Südwest
Sichtweite 10 km oder mehr
Durchbrochene Bewölkung in der Höhe von 2000 ft
Übergehend zu
vom 06 um 12 UTC bis 06 um 14 UTC
Aufgelockert bewölkt in der Höhe von 3000 ft

TAF: EGUW 061153Z 0612/0621 20010KT 9999 BKN020 BECMG 0612/0614 SCT030

Wetterbeobachtungen und Prognosen von mehr als 4000 Flughäfen (METAR und TAF Bericht).

Die verfügbaren Stationen werden durch gelbe und rote Markierungen auf der Karte dargestellt.

Führen Sie die Maus auf sie, um den Namen der Station zu sehen.

Darauf klicken, um die Beobachtung von Wetterbeobachtungen und Prognosen zu sehen.

Um die Karte zu ändern : klicken Sie auf den grünen Tasten mit einem schwarzen Kreuz Zum Vergrößern, auf den grünen Button mit einem Gedankenstrich zu verkleinern, oder auf die grünen Pfeile für benachbarte Karten.


METAR-TAF: